sensor_id;sensor_type;location;lat;lon;timestamp;temperature;humidity
52209;DHT22;38507;53.132;6.394;2022-12-10T00:01:12;-1.80;99.90
52209;DHT22;38507;53.132;6.394;2022-12-10T00:03:38;-1.80;99.90
52209;DHT22;38507;53.132;6.394;2022-12-10T00:06:06;-1.90;99.90
52209;DHT22;38507;53.132;6.394;2022-12-10T00:08:33;-1.80;99.90
52209;DHT22;38507;53.132;6.394;2022-12-10T00:10:59;-1.90;99.90
52209;DHT22;38507;53.132;6.394;2022-12-10T00:13:25;-1.90;99.90
52209;DHT22;38507;53.132;6.394;2022-12-10T00:15:50;-1.80;99.90
52209;DHT22;38507;53.132;6.394;2022-12-10T00:18:16;-1.90;99.90
52209;DHT22;38507;53.132;6.394;2022-12-10T00:20:41;-1.90;99.90
52209;DHT22;38507;53.132;6.394;2022-12-10T00:23:07;-1.90;99.90
52209;DHT22;38507;53.132;6.394;2022-12-10T00:25:33;-1.90;99.90
52209;DHT22;38507;53.132;6.394;2022-12-10T00:27:58;-1.90;99.90
52209;DHT22;38507;53.132;6.394;2022-12-10T00:30:24;-1.90;99.90
52209;DHT22;38507;53.132;6.394;2022-12-10T00:32:50;-1.90;99.90
52209;DHT22;38507;53.132;6.394;2022-12-10T00:35:16;-1.90;99.90
52209;DHT22;38507;53.132;6.394;2022-12-10T00:37:41;-1.90;99.90
52209;DHT22;38507;53.132;6.394;2022-12-10T00:40:08;-1.90;99.90
52209;DHT22;38507;53.132;6.394;2022-12-10T00:42:33;-1.90;99.90
52209;DHT22;38507;53.132;6.394;2022-12-10T00:44:59;-1.90;99.90
52209;DHT22;38507;53.132;6.394;2022-12-10T00:47:25;-1.90;99.90
52209;DHT22;38507;53.132;6.394;2022-12-10T00:49:50;-1.90;99.90
52209;DHT22;38507;53.132;6.394;2022-12-10T00:52:16;-1.90;99.90
52209;DHT22;38507;53.132;6.394;2022-12-10T00:54:41;-1.90;99.90
52209;DHT22;38507;53.132;6.394;2022-12-10T00:57:07;-1.90;99.90
52209;DHT22;38507;53.132;6.394;2022-12-10T00:59:33;-2.00;99.90
52209;DHT22;38507;53.132;6.394;2022-12-10T01:01:58;-1.40;99.90
52209;DHT22;38507;53.132;6.394;2022-12-10T01:04:24;-2.00;99.90
52209;DHT22;38507;53.132;6.394;2022-12-10T01:06:52;-2.00;99.90
52209;DHT22;38507;53.132;6.394;2022-12-10T01:09:21;-2.10;99.90
52209;DHT22;38507;53.132;6.394;2022-12-10T01:11:49;-2.10;99.90
52209;DHT22;38507;53.132;6.394;2022-12-10T01:14:18;-2.10;99.90
52209;DHT22;38507;53.132;6.394;2022-12-10T01:16:44;-2.10;99.90
52209;DHT22;38507;53.132;6.394;2022-12-10T01:19:11;-2.10;99.90
52209;DHT22;38507;53.132;6.394;2022-12-10T01:21:37;-2.20;99.90
52209;DHT22;38507;53.132;6.394;2022-12-10T01:24:03;-2.20;99.90
52209;DHT22;38507;53.132;6.394;2022-12-10T01:26:32;-2.20;99.90
52209;DHT22;38507;53.132;6.394;2022-12-10T01:28:58;-2.30;99.90
52209;DHT22;38507;53.132;6.394;2022-12-10T01:31:33;-2.30;99.90
52209;DHT22;38507;53.132;6.394;2022-12-10T01:34:00;-2.30;99.90
52209;DHT22;38507;53.132;6.394;2022-12-10T01:36:36;-2.30;99.90
52209;DHT22;38507;53.132;6.394;2022-12-10T01:39:03;-2.30;99.90
52209;DHT22;38507;53.132;6.394;2022-12-10T01:41:39;-2.40;99.90
52209;DHT22;38507;53.132;6.394;2022-12-10T01:46:35;-2.40;99.90
52209;DHT22;38507;53.132;6.394;2022-12-10T01:49:04;-2.40;99.90
52209;DHT22;38507;53.132;6.394;2022-12-10T01:51:33;-2.50;99.90
52209;DHT22;38507;53.132;6.394;2022-12-10T01:54:00;-2.50;99.90
52209;DHT22;38507;53.132;6.394;2022-12-10T01:56:26;-2.50;99.90
52209;DHT22;38507;53.132;6.394;2022-12-10T01:58:55;-2.50;99.90
52209;DHT22;38507;53.132;6.394;2022-12-10T02:01:32;-2.50;99.90
52209;DHT22;38507;53.132;6.394;2022-12-10T02:14:58;-2.50;99.90
52209;DHT22;38507;53.132;6.394;2022-12-10T02:17:40;-2.50;99.90
52209;DHT22;38507;53.132;6.394;2022-12-10T02:20:30;-2.40;99.90
52209;DHT22;38507;53.132;6.394;2022-12-10T02:23:04;-2.50;99.90
52209;DHT22;38507;53.132;6.394;2022-12-10T02:25:48;-2.40;99.90
52209;DHT22;38507;53.132;6.394;2022-12-10T02:31:11;-2.50;99.90
52209;DHT22;38507;53.132;6.394;2022-12-10T02:33:44;-2.50;99.90
52209;DHT22;38507;53.132;6.394;2022-12-10T02:36:13;-2.40;99.90
52209;DHT22;38507;53.132;6.394;2022-12-10T02:38:40;-2.40;99.90
52209;DHT22;38507;53.132;6.394;2022-12-10T02:41:10;-2.50;99.90
52209;DHT22;38507;53.132;6.394;2022-12-10T02:43:37;-2.50;99.90
52209;DHT22;38507;53.132;6.394;2022-12-10T02:46:04;-2.50;99.90
52209;DHT22;38507;53.132;6.394;2022-12-10T02:48:31;-2.50;99.90
52209;DHT22;38507;53.132;6.394;2022-12-10T02:50:58;-2.50;99.90
52209;DHT22;38507;53.132;6.394;2022-12-10T02:53:23;-2.50;99.90
52209;DHT22;38507;53.132;6.394;2022-12-10T02:58:52;-2.50;99.90
52209;DHT22;38507;53.132;6.394;2022-12-10T03:01:36;-2.50;99.90
52209;DHT22;38507;53.132;6.394;2022-12-10T03:04:14;-2.50;99.90
52209;DHT22;38507;53.132;6.394;2022-12-10T03:06:52;-2.50;99.90
52209;DHT22;38507;53.132;6.394;2022-12-10T03:09:26;-2.50;99.90
52209;DHT22;38507;53.132;6.394;2022-12-10T03:12:02;-2.60;99.90
52209;DHT22;38507;53.132;6.394;2022-12-10T03:14:32;-2.60;99.90
52209;DHT22;38507;53.132;6.394;2022-12-10T03:17:00;-2.60;99.90
52209;DHT22;38507;53.132;6.394;2022-12-10T03:19:45;-2.60;99.90
52209;DHT22;38507;53.132;6.394;2022-12-10T03:22:14;-2.60;99.90
52209;DHT22;38507;53.132;6.394;2022-12-10T03:24:42;-2.60;99.90
52209;DHT22;38507;53.132;6.394;2022-12-10T03:27:09;-2.70;99.90
52209;DHT22;38507;53.132;6.394;2022-12-10T03:29:39;-2.60;99.90
52209;DHT22;38507;53.132;6.394;2022-12-10T03:32:07;-2.70;99.90
52209;DHT22;38507;53.132;6.394;2022-12-10T03:34:34;-2.70;99.90
52209;DHT22;38507;53.132;6.394;2022-12-10T03:37:00;-2.60;99.90
52209;DHT22;38507;53.132;6.394;2022-12-10T03:39:26;-2.60;99.90
52209;DHT22;38507;53.132;6.394;2022-12-10T03:41:52;-2.60;99.90
52209;DHT22;38507;53.132;6.394;2022-12-10T03:44:33;-2.70;99.90
52209;DHT22;38507;53.132;6.394;2022-12-10T03:46:59;-2.70;99.90
52209;DHT22;38507;53.132;6.394;2022-12-10T03:49:25;-2.10;99.90
52209;DHT22;38507;53.132;6.394;2022-12-10T03:51:51;-2.70;99.90
52209;DHT22;38507;53.132;6.394;2022-12-10T03:54:17;-2.70;99.90
52209;DHT22;38507;53.132;6.394;2022-12-10T03:56:42;-2.80;99.90
52209;DHT22;38507;53.132;6.394;2022-12-10T03:59:08;-2.70;99.90
52209;DHT22;38507;53.132;6.394;2022-12-10T04:01:34;-2.70;99.90
52209;DHT22;38507;53.132;6.394;2022-12-10T04:03:59;-2.70;99.90
52209;DHT22;38507;53.132;6.394;2022-12-10T04:06:25;-2.70;99.90
52209;DHT22;38507;53.132;6.394;2022-12-10T04:08:52;-2.70;99.90
52209;DHT22;38507;53.132;6.394;2022-12-10T04:11:18;-2.70;99.90
52209;DHT22;38507;53.132;6.394;2022-12-10T04:13:44;-2.60;99.90
52209;DHT22;38507;53.132;6.394;2022-12-10T04:16:31;-2.70;99.90
52209;DHT22;38507;53.132;6.394;2022-12-10T04:19:11;-2.70;99.90
52209;DHT22;38507;53.132;6.394;2022-12-10T04:21:38;-2.70;99.90
52209;DHT22;38507;53.132;6.394;2022-12-10T04:24:28;-2.60;99.90
52209;DHT22;38507;53.132;6.394;2022-12-10T04:27:30;-2.60;99.90
52209;DHT22;38507;53.132;6.394;2022-12-10T04:29:57;-2.60;99.90
52209;DHT22;38507;53.132;6.394;2022-12-10T04:32:24;-2.60;99.90
52209;DHT22;38507;53.132;6.394;2022-12-10T04:34:50;-2.60;99.90
52209;DHT22;38507;53.132;6.394;2022-12-10T04:37:17;-2.50;99.90
52209;DHT22;38507;53.132;6.394;2022-12-10T04:39:43;-2.50;99.90
52209;DHT22;38507;53.132;6.394;2022-12-10T04:42:08;-2.40;99.90
52209;DHT22;38507;53.132;6.394;2022-12-10T04:44:35;-2.40;99.90
52209;DHT22;38507;53.132;6.394;2022-12-10T04:47:01;-2.40;99.90
52209;DHT22;38507;53.132;6.394;2022-12-10T04:49:26;-2.30;99.90
52209;DHT22;38507;53.132;6.394;2022-12-10T04:51:52;-2.30;99.90
52209;DHT22;38507;53.132;6.394;2022-12-10T04:54:19;-2.30;99.90
52209;DHT22;38507;53.132;6.394;2022-12-10T04:56:44;-2.20;99.90
52209;DHT22;38507;53.132;6.394;2022-12-10T04:59:11;-2.20;99.90
52209;DHT22;38507;53.132;6.394;2022-12-10T05:01:37;-2.20;99.90
52209;DHT22;38507;53.132;6.394;2022-12-10T05:04:05;-2.10;99.90
52209;DHT22;38507;53.132;6.394;2022-12-10T05:06:31;-2.10;99.90
52209;DHT22;38507;53.132;6.394;2022-12-10T05:08:57;-2.10;99.90
52209;DHT22;38507;53.132;6.394;2022-12-10T05:11:25;-2.10;99.90
52209;DHT22;38507;53.132;6.394;2022-12-10T05:13:52;-2.00;99.90
52209;DHT22;38507;53.132;6.394;2022-12-10T05:16:20;-2.00;99.90
52209;DHT22;38507;53.132;6.394;2022-12-10T05:18:46;-2.00;99.90
52209;DHT22;38507;53.132;6.394;2022-12-10T05:21:15;-2.00;99.90
52209;DHT22;38507;53.132;6.394;2022-12-10T05:23:43;-2.00;99.90
52209;DHT22;38507;53.132;6.394;2022-12-10T05:26:23;-2.00;99.90
52209;DHT22;38507;53.132;6.394;2022-12-10T05:28:52;-2.00;99.90
52209;DHT22;38507;53.132;6.394;2022-12-10T05:31:24;-2.00;99.90
52209;DHT22;38507;53.132;6.394;2022-12-10T05:33:50;-2.00;99.90
52209;DHT22;38507;53.132;6.394;2022-12-10T05:36:18;-1.90;99.90
52209;DHT22;38507;53.132;6.394;2022-12-10T05:38:44;-1.90;99.90
52209;DHT22;38507;53.132;6.394;2022-12-10T05:41:18;-1.90;99.90
52209;DHT22;38507;53.132;6.394;2022-12-10T05:43:45;-1.90;99.90
52209;DHT22;38507;53.132;6.394;2022-12-10T05:46:13;-1.90;99.90
52209;DHT22;38507;53.132;6.394;2022-12-10T05:48:40;-1.90;99.90
52209;DHT22;38507;53.132;6.394;2022-12-10T05:51:10;-1.90;99.90
52209;DHT22;38507;53.132;6.394;2022-12-10T05:53:37;-1.00;99.90
52209;DHT22;38507;53.132;6.394;2022-12-10T05:56:05;-1.90;99.90
52209;DHT22;38507;53.132;6.394;2022-12-10T05:58:32;-1.90;99.90
52209;DHT22;38507;53.132;6.394;2022-12-10T06:00:58;-1.90;99.90
52209;DHT22;38507;53.132;6.394;2022-12-10T06:03:26;-1.90;99.90
52209;DHT22;38507;53.132;6.394;2022-12-10T06:05:52;-1.90;99.90
52209;DHT22;38507;53.132;6.394;2022-12-10T06:08:17;-1.90;99.90
52209;DHT22;38507;53.132;6.394;2022-12-10T06:10:43;-1.90;99.90
52209;DHT22;38507;53.132;6.394;2022-12-10T06:13:09;-1.90;99.90
52209;DHT22;38507;53.132;6.394;2022-12-10T06:15:38;-1.90;99.90
52209;DHT22;38507;53.132;6.394;2022-12-10T06:18:04;-1.90;99.90
52209;DHT22;38507;53.132;6.394;2022-12-10T06:20:30;-1.80;99.90
52209;DHT22;38507;53.132;6.394;2022-12-10T06:22:56;-1.90;99.90
52209;DHT22;38507;53.132;6.394;2022-12-10T06:25:21;-1.90;99.90
52209;DHT22;38507;53.132;6.394;2022-12-10T06:27:47;-1.80;99.90
52209;DHT22;38507;53.132;6.394;2022-12-10T06:30:12;-1.90;99.90
52209;DHT22;38507;53.132;6.394;2022-12-10T06:32:38;-1.90;99.90
52209;DHT22;38507;53.132;6.394;2022-12-10T06:35:05;-1.80;99.90
52209;DHT22;38507;53.132;6.394;2022-12-10T06:37:31;-1.80;99.90
52209;DHT22;38507;53.132;6.394;2022-12-10T06:39:56;-1.80;99.90
52209;DHT22;38507;53.132;6.394;2022-12-10T06:42:22;-1.80;99.90
52209;DHT22;38507;53.132;6.394;2022-12-10T06:44:48;-1.80;99.90
52209;DHT22;38507;53.132;6.394;2022-12-10T06:47:14;-1.80;99.90
52209;DHT22;38507;53.132;6.394;2022-12-10T06:49:40;-1.80;99.90
52209;DHT22;38507;53.132;6.394;2022-12-10T06:52:06;-1.90;99.90
52209;DHT22;38507;53.132;6.394;2022-12-10T06:54:32;-1.90;99.90
52209;DHT22;38507;53.132;6.394;2022-12-10T06:56:58;-1.90;99.90
52209;DHT22;38507;53.132;6.394;2022-12-10T06:59:24;-1.90;99.90
52209;DHT22;38507;53.132;6.394;2022-12-10T07:01:50;-1.90;99.90
52209;DHT22;38507;53.132;6.394;2022-12-10T07:04:16;-1.90;99.90
52209;DHT22;38507;53.132;6.394;2022-12-10T07:06:42;-1.90;99.90
52209;DHT22;38507;53.132;6.394;2022-12-10T07:09:08;-1.90;99.90
52209;DHT22;38507;53.132;6.394;2022-12-10T07:11:35;-1.90;99.90
52209;DHT22;38507;53.132;6.394;2022-12-10T07:14:02;-1.90;99.90
52209;DHT22;38507;53.132;6.394;2022-12-10T07:16:31;-1.90;99.90
52209;DHT22;38507;53.132;6.394;2022-12-10T07:18:58;-1.90;99.90
52209;DHT22;38507;53.132;6.394;2022-12-10T07:21:33;-1.90;99.90
52209;DHT22;38507;53.132;6.394;2022-12-10T07:24:03;-1.90;99.90
52209;DHT22;38507;53.132;6.394;2022-12-10T07:26:32;-1.90;99.90
52209;DHT22;38507;53.132;6.394;2022-12-10T07:29:01;-1.90;99.90
52209;DHT22;38507;53.132;6.394;2022-12-10T07:31:26;-1.90;99.90
52209;DHT22;38507;53.132;6.394;2022-12-10T07:33:53;-1.90;99.90
52209;DHT22;38507;53.132;6.394;2022-12-10T07:36:21;-1.90;99.90
52209;DHT22;38507;53.132;6.394;2022-12-10T07:38:48;-1.10;99.90
52209;DHT22;38507;53.132;6.394;2022-12-10T07:41:15;-1.90;99.90
52209;DHT22;38507;53.132;6.394;2022-12-10T07:43:42;-1.90;99.90
52209;DHT22;38507;53.132;6.394;2022-12-10T07:46:10;-2.00;99.90
52209;DHT22;38507;53.132;6.394;2022-12-10T07:48:37;-2.00;99.90
52209;DHT22;38507;53.132;6.394;2022-12-10T07:51:04;-1.90;99.90
52209;DHT22;38507;53.132;6.394;2022-12-10T07:53:30;-1.90;99.90
52209;DHT22;38507;53.132;6.394;2022-12-10T07:55:56;-1.90;99.90
52209;DHT22;38507;53.132;6.394;2022-12-10T07:58:22;-2.00;99.90
52209;DHT22;38507;53.132;6.394;2022-12-10T08:00:47;-1.10;99.90
52209;DHT22;38507;53.132;6.394;2022-12-10T08:03:13;-1.90;99.90
52209;DHT22;38507;53.132;6.394;2022-12-10T08:05:39;-2.00;99.90
52209;DHT22;38507;53.132;6.394;2022-12-10T08:08:04;-2.00;99.90
52209;DHT22;38507;53.132;6.394;2022-12-10T08:10:33;-1.90;99.90
52209;DHT22;38507;53.132;6.394;2022-12-10T08:12:58;-2.00;99.90
52209;DHT22;38507;53.132;6.394;2022-12-10T08:15:24;-2.00;99.90
52209;DHT22;38507;53.132;6.394;2022-12-10T08:17:50;-2.00;99.90
52209;DHT22;38507;53.132;6.394;2022-12-10T08:20:16;-2.00;99.90
52209;DHT22;38507;53.132;6.394;2022-12-10T08:22:42;-1.60;99.90
52209;DHT22;38507;53.132;6.394;2022-12-10T08:25:07;-2.00;99.90
52209;DHT22;38507;53.132;6.394;2022-12-10T08:27:33;-1.90;99.90
52209;DHT22;38507;53.132;6.394;2022-12-10T08:29:59;-1.90;99.90
52209;DHT22;38507;53.132;6.394;2022-12-10T08:32:24;-1.90;99.90
52209;DHT22;38507;53.132;6.394;2022-12-10T08:34:50;-1.90;99.90
52209;DHT22;38507;53.132;6.394;2022-12-10T08:37:15;-1.90;99.90
52209;DHT22;38507;53.132;6.394;2022-12-10T08:39:41;-1.90;99.90
52209;DHT22;38507;53.132;6.394;2022-12-10T08:42:07;-1.90;99.90
52209;DHT22;38507;53.132;6.394;2022-12-10T08:44:32;-1.90;99.90
52209;DHT22;38507;53.132;6.394;2022-12-10T08:46:58;-1.90;99.90
52209;DHT22;38507;53.132;6.394;2022-12-10T08:49:23;-1.90;99.90
52209;DHT22;38507;53.132;6.394;2022-12-10T08:51:49;-1.90;99.90
52209;DHT22;38507;53.132;6.394;2022-12-10T08:54:15;-1.90;99.90
52209;DHT22;38507;53.132;6.394;2022-12-10T08:56:40;-1.90;99.90
52209;DHT22;38507;53.132;6.394;2022-12-10T08:59:06;-1.90;99.90
52209;DHT22;38507;53.132;6.394;2022-12-10T09:01:32;-1.90;99.90
52209;DHT22;38507;53.132;6.394;2022-12-10T09:03:58;-1.90;99.90
52209;DHT22;38507;53.132;6.394;2022-12-10T09:06:26;-1.90;99.90
52209;DHT22;38507;53.132;6.394;2022-12-10T09:08:52;-1.90;99.90
52209;DHT22;38507;53.132;6.394;2022-12-10T09:11:22;-1.90;99.90
52209;DHT22;38507;53.132;6.394;2022-12-10T09:13:49;-1.90;99.90
52209;DHT22;38507;53.132;6.394;2022-12-10T09:16:15;-1.90;99.90
52209;DHT22;38507;53.132;6.394;2022-12-10T09:18:41;-1.90;99.90
52209;DHT22;38507;53.132;6.394;2022-12-10T09:21:12;-1.90;99.90
52209;DHT22;38507;53.132;6.394;2022-12-10T09:23:38;-1.90;99.90
52209;DHT22;38507;53.132;6.394;2022-12-10T09:26:09;-1.80;99.90
52209;DHT22;38507;53.132;6.394;2022-12-10T09:28:36;-1.90;99.90
52209;DHT22;38507;53.132;6.394;2022-12-10T09:31:02;-1.90;99.90
52209;DHT22;38507;53.132;6.394;2022-12-10T09:33:30;-1.80;99.90
52209;DHT22;38507;53.132;6.394;2022-12-10T09:35:55;-1.80;99.90
52209;DHT22;38507;53.132;6.394;2022-12-10T09:38:21;-1.80;99.90
52209;DHT22;38507;53.132;6.394;2022-12-10T09:46:39;-0.80;99.90
52209;DHT22;38507;53.132;6.394;2022-12-10T09:49:23;-1.80;99.90
52209;DHT22;38507;53.132;6.394;2022-12-10T09:51:58;-1.80;99.90
52209;DHT22;38507;53.132;6.394;2022-12-10T09:54:32;-1.80;99.90
52209;DHT22;38507;53.132;6.394;2022-12-10T09:56:59;-1.80;99.90
52209;DHT22;38507;53.132;6.394;2022-12-10T09:59:34;-1.70;99.90
52209;DHT22;38507;53.132;6.394;2022-12-10T10:04:41;-1.70;99.90
52209;DHT22;38507;53.132;6.394;2022-12-10T10:07:08;-1.70;99.90
52209;DHT22;38507;53.132;6.394;2022-12-10T10:09:39;-1.70;99.90
52209;DHT22;38507;53.132;6.394;2022-12-10T10:12:13;-1.60;99.90
52209;DHT22;38507;53.132;6.394;2022-12-10T10:14:41;-1.70;99.90
52209;DHT22;38507;53.132;6.394;2022-12-10T10:17:21;-1.60;99.90
52209;DHT22;38507;53.132;6.394;2022-12-10T10:19:49;-1.60;99.90
52209;DHT22;38507;53.132;6.394;2022-12-10T10:22:15;-1.60;99.90
52209;DHT22;38507;53.132;6.394;2022-12-10T10:24:44;-1.60;99.90
52209;DHT22;38507;53.132;6.394;2022-12-10T10:29:47;-1.60;99.90
52209;DHT22;38507;53.132;6.394;2022-12-10T10:35:02;-1.60;99.90
52209;DHT22;38507;53.132;6.394;2022-12-10T10:37:40;-1.50;99.90
52209;DHT22;38507;53.132;6.394;2022-12-10T10:40:28;-1.50;99.90
52209;DHT22;38507;53.132;6.394;2022-12-10T10:42:56;-1.50;99.90
52209;DHT22;38507;53.132;6.394;2022-12-10T10:45:54;-1.50;99.90
52209;DHT22;38507;53.132;6.394;2022-12-10T10:48:24;-1.40;99.90
52209;DHT22;38507;53.132;6.394;2022-12-10T10:53:35;-1.40;99.90
52209;DHT22;38507;53.132;6.394;2022-12-10T10:56:24;-1.40;99.90
52209;DHT22;38507;53.132;6.394;2022-12-10T10:58:58;-1.40;99.90
52209;DHT22;38507;53.132;6.394;2022-12-10T11:01:46;-1.30;99.90
52209;DHT22;38507;53.132;6.394;2022-12-10T11:04:14;-1.30;99.90
52209;DHT22;38507;53.132;6.394;2022-12-10T11:06:41;-0.90;99.90
52209;DHT22;38507;53.132;6.394;2022-12-10T11:09:07;-1.30;99.90
52209;DHT22;38507;53.132;6.394;2022-12-10T11:11:36;-1.30;99.90
52209;DHT22;38507;53.132;6.394;2022-12-10T11:14:24;-1.30;99.90
52209;DHT22;38507;53.132;6.394;2022-12-10T11:16:56;-1.30;99.90
52209;DHT22;38507;53.132;6.394;2022-12-10T11:19:25;-1.30;99.90
52209;DHT22;38507;53.132;6.394;2022-12-10T11:21:52;-1.20;99.90
52209;DHT22;38507;53.132;6.394;2022-12-10T11:24:19;-0.30;99.90
52209;DHT22;38507;53.132;6.394;2022-12-10T11:27:03;-1.20;99.90
52209;DHT22;38507;53.132;6.394;2022-12-10T11:29:45;-1.20;99.90
52209;DHT22;38507;53.132;6.394;2022-12-10T11:49:14;-1.00;99.90
52209;DHT22;38507;53.132;6.394;2022-12-10T12:00:13;-0.90;99.90
52209;DHT22;38507;53.132;6.394;2022-12-10T12:05:43;-0.90;99.90
52209;DHT22;38507;53.132;6.394;2022-12-10T12:11:15;-0.90;99.90
52209;DHT22;38507;53.132;6.394;2022-12-10T12:16:45;-0.80;99.90
52209;DHT22;38507;53.132;6.394;2022-12-10T12:19:25;-0.80;99.90
52209;DHT22;38507;53.132;6.394;2022-12-10T12:21:55;-0.80;99.90
52209;DHT22;38507;53.132;6.394;2022-12-10T12:24:34;-0.80;99.90
52209;DHT22;38507;53.132;6.394;2022-12-10T12:27:12;-0.80;99.90
52209;DHT22;38507;53.132;6.394;2022-12-10T12:29:45;-0.80;99.90
52209;DHT22;38507;53.132;6.394;2022-12-10T12:32:20;-0.80;99.90
52209;DHT22;38507;53.132;6.394;2022-12-10T12:37:24;-0.80;99.90
52209;DHT22;38507;53.132;6.394;2022-12-10T12:42:54;-0.70;99.90
52209;DHT22;38507;53.132;6.394;2022-12-10T12:50:43;-0.70;99.90
52209;DHT22;38507;53.132;6.394;2022-12-10T12:53:13;-0.70;99.90
52209;DHT22;38507;53.132;6.394;2022-12-10T12:58:51;-0.70;99.90
52209;DHT22;38507;53.132;6.394;2022-12-10T13:03:58;-0.70;99.90
52209;DHT22;38507;53.132;6.394;2022-12-10T13:11:44;-0.70;99.90
52209;DHT22;38507;53.132;6.394;2022-12-10T13:14:15;-0.60;99.90
52209;DHT22;38507;53.132;6.394;2022-12-10T13:22:01;-0.70;99.90
52209;DHT22;38507;53.132;6.394;2022-12-10T13:37:34;-0.60;99.90
52209;DHT22;38507;53.132;6.394;2022-12-10T13:42:44;-0.70;99.90
52209;DHT22;38507;53.132;6.394;2022-12-10T13:45:35;-0.70;99.90
52209;DHT22;38507;53.132;6.394;2022-12-10T13:48:30;-0.70;99.90
52209;DHT22;38507;53.132;6.394;2022-12-10T13:53:40;-0.60;99.90
52209;DHT22;38507;53.132;6.394;2022-12-10T14:04:18;-0.60;99.90
52209;DHT22;38507;53.132;6.394;2022-12-10T14:06:47;-0.60;99.90
52209;DHT22;38507;53.132;6.394;2022-12-10T14:09:24;-0.60;99.90
52209;DHT22;38507;53.132;6.394;2022-12-10T14:12:02;-0.60;99.90
52209;DHT22;38507;53.132;6.394;2022-12-10T14:14:50;-0.60;99.90
52209;DHT22;38507;53.132;6.394;2022-12-10T14:17:24;-0.60;99.90
52209;DHT22;38507;53.132;6.394;2022-12-10T14:19:53;-0.60;99.90
52209;DHT22;38507;53.132;6.394;2022-12-10T14:23:02;-0.60;99.90
52209;DHT22;38507;53.132;6.394;2022-12-10T14:25:46;-0.60;99.90
52209;DHT22;38507;53.132;6.394;2022-12-10T14:28:17;-0.60;99.90
52209;DHT22;38507;53.132;6.394;2022-12-10T14:30:44;-0.60;99.90
52209;DHT22;38507;53.132;6.394;2022-12-10T14:33:14;-0.60;99.90
52209;DHT22;38507;53.132;6.394;2022-12-10T14:35:41;-0.60;99.90
52209;DHT22;38507;53.132;6.394;2022-12-10T14:38:17;-0.60;99.90
52209;DHT22;38507;53.132;6.394;2022-12-10T14:40:43;-0.60;99.90
52209;DHT22;38507;53.132;6.394;2022-12-10T14:43:14;-0.60;99.90
52209;DHT22;38507;53.132;6.394;2022-12-10T14:45:56;-0.60;99.90
52209;DHT22;38507;53.132;6.394;2022-12-10T14:48:23;-0.60;99.90
52209;DHT22;38507;53.132;6.394;2022-12-10T14:50:49;-0.60;99.90
52209;DHT22;38507;53.132;6.394;2022-12-10T14:53:18;-0.60;99.90
52209;DHT22;38507;53.132;6.394;2022-12-10T14:55:46;-0.60;99.90
52209;DHT22;38507;53.132;6.394;2022-12-10T14:58:23;-0.60;99.90
52209;DHT22;38507;53.132;6.394;2022-12-10T15:00:51;-0.50;99.90
52209;DHT22;38507;53.132;6.394;2022-12-10T15:03:27;-0.60;99.90
52209;DHT22;38507;53.132;6.394;2022-12-10T15:05:56;-0.50;99.90
52209;DHT22;38507;53.132;6.394;2022-12-10T15:08:24;-0.50;99.90
52209;DHT22;38507;53.132;6.394;2022-12-10T15:10:54;-0.60;99.90
52209;DHT22;38507;53.132;6.394;2022-12-10T15:15:57;-0.50;99.90
52209;DHT22;38507;53.132;6.394;2022-12-10T15:18:38;-0.50;99.90
52209;DHT22;38507;53.132;6.394;2022-12-10T15:21:16;-0.50;99.90
52209;DHT22;38507;53.132;6.394;2022-12-10T15:23:47;-0.50;99.90
52209;DHT22;38507;53.132;6.394;2022-12-10T15:28:42;-0.50;99.90
52209;DHT22;38507;53.132;6.394;2022-12-10T15:33:53;-0.50;99.90
52209;DHT22;38507;53.132;6.394;2022-12-10T15:36:39;-0.50;99.90
52209;DHT22;38507;53.132;6.394;2022-12-10T15:39:16;-0.60;99.90
52209;DHT22;38507;53.132;6.394;2022-12-10T15:41:53;-0.50;99.90
52209;DHT22;38507;53.132;6.394;2022-12-10T15:44:38;-0.60;99.90
52209;DHT22;38507;53.132;6.394;2022-12-10T15:47:25;-0.60;99.90
52209;DHT22;38507;53.132;6.394;2022-12-10T15:49:54;-0.60;99.90
52209;DHT22;38507;53.132;6.394;2022-12-10T15:52:26;-0.10;99.90
52209;DHT22;38507;53.132;6.394;2022-12-10T15:54:54;-0.60;99.90
52209;DHT22;38507;53.132;6.394;2022-12-10T15:57:24;-0.60;99.90
52209;DHT22;38507;53.132;6.394;2022-12-10T15:59:52;-0.60;99.90
52209;DHT22;38507;53.132;6.394;2022-12-10T16:02:35;-0.60;99.90
52209;DHT22;38507;53.132;6.394;2022-12-10T16:07:36;-0.60;99.90
52209;DHT22;38507;53.132;6.394;2022-12-10T16:10:03;-0.60;99.90
52209;DHT22;38507;53.132;6.394;2022-12-10T16:12:29;-0.60;99.90
52209;DHT22;38507;53.132;6.394;2022-12-10T16:14:56;-0.60;99.90
52209;DHT22;38507;53.132;6.394;2022-12-10T16:17:26;-0.60;99.90
52209;DHT22;38507;53.132;6.394;2022-12-10T16:19:56;-0.60;99.90
52209;DHT22;38507;53.132;6.394;2022-12-10T16:22:22;-0.60;99.90
52209;DHT22;38507;53.132;6.394;2022-12-10T16:24:48;-0.60;99.90
52209;DHT22;38507;53.132;6.394;2022-12-10T16:27:14;-0.60;99.90
52209;DHT22;38507;53.132;6.394;2022-12-10T16:29:41;-0.60;99.90
52209;DHT22;38507;53.132;6.394;2022-12-10T16:32:11;-0.70;99.90
52209;DHT22;38507;53.132;6.394;2022-12-10T16:34:37;-0.60;99.90
52209;DHT22;38507;53.132;6.394;2022-12-10T16:37:03;-0.70;99.90
52209;DHT22;38507;53.132;6.394;2022-12-10T16:39:29;-0.70;99.90
52209;DHT22;38507;53.132;6.394;2022-12-10T16:41:55;-0.70;99.90
52209;DHT22;38507;53.132;6.394;2022-12-10T16:44:20;-0.70;99.90
52209;DHT22;38507;53.132;6.394;2022-12-10T16:46:46;-0.70;99.90
52209;DHT22;38507;53.132;6.394;2022-12-10T16:49:12;-0.70;99.90
52209;DHT22;38507;53.132;6.394;2022-12-10T16:51:38;-0.70;99.90
52209;DHT22;38507;53.132;6.394;2022-12-10T16:54:04;-0.80;99.90
52209;DHT22;38507;53.132;6.394;2022-12-10T16:56:30;-0.80;99.90
52209;DHT22;38507;53.132;6.394;2022-12-10T16:58:56;-0.80;99.90
52209;DHT22;38507;53.132;6.394;2022-12-10T17:01:25;-0.80;99.90
52209;DHT22;38507;53.132;6.394;2022-12-10T17:03:53;-0.80;99.90
52209;DHT22;38507;53.132;6.394;2022-12-10T17:06:20;-0.80;99.90
52209;DHT22;38507;53.132;6.394;2022-12-10T17:08:46;-0.80;99.90
52209;DHT22;38507;53.132;6.394;2022-12-10T17:14:04;-0.80;99.90
52209;DHT22;38507;53.132;6.394;2022-12-10T17:16:31;-0.80;99.90
52209;DHT22;38507;53.132;6.394;2022-12-10T17:18:56;-0.90;99.90
52209;DHT22;38507;53.132;6.394;2022-12-10T17:21:22;-0.90;99.90
52209;DHT22;38507;53.132;6.394;2022-12-10T17:23:49;-0.90;99.90
52209;DHT22;38507;53.132;6.394;2022-12-10T17:26:23;-0.90;99.90
52209;DHT22;38507;53.132;6.394;2022-12-10T17:28:50;-0.70;99.90
52209;DHT22;38507;53.132;6.394;2022-12-10T17:31:16;-0.90;99.90
52209;DHT22;38507;53.132;6.394;2022-12-10T17:33:42;-0.90;99.90
52209;DHT22;38507;53.132;6.394;2022-12-10T17:36:09;-0.90;99.90
52209;DHT22;38507;53.132;6.394;2022-12-10T17:38:35;-0.90;99.90
52209;DHT22;38507;53.132;6.394;2022-12-10T17:41:00;-0.90;99.90
52209;DHT22;38507;53.132;6.394;2022-12-10T17:43:26;-0.90;99.90
52209;DHT22;38507;53.132;6.394;2022-12-10T17:45:53;-1.00;99.90
52209;DHT22;38507;53.132;6.394;2022-12-10T17:48:20;-1.00;99.90
52209;DHT22;38507;53.132;6.394;2022-12-10T17:50:46;-1.00;99.90
52209;DHT22;38507;53.132;6.394;2022-12-10T17:53:13;-1.00;99.90
52209;DHT22;38507;53.132;6.394;2022-12-10T17:55:43;-1.00;99.90
52209;DHT22;38507;53.132;6.394;2022-12-10T17:58:11;-0.90;99.90
52209;DHT22;38507;53.132;6.394;2022-12-10T18:00:37;-1.00;99.90